Time;durP1;ratioP1;P1;durP2;ratioP2;P2;SDS_P1;SDS_P2;PMS_P1;PMS_P2;Temp;Humidity;BMP_temperature;BMP_pressure;BME280_temperature;BME280_humidity;BME280_pressure;Samples;Min_cycle;Max_cycle;Signal;HPM_P1;HPM_P2
2023/01/27 00:00:52;;;;;;;44.00;24.57;;;4.40;99.90;;;;;;5107692;28;20184;-87
2023/01/27 00:03:19;;;;;;;48.38;26.00;;;4.40;99.90;;;;;;5106101;28;20481;-84
2023/01/27 00:05:45;;;;;;;52.22;27.40;;;4.40;99.90;;;;;;5104736;28;20267;-88
2023/01/27 00:08:12;;;;;;;51.65;26.75;;;4.30;99.90;;;;;;5104387;28;20243;-88
2023/01/27 00:10:38;;;;;;;49.15;26.50;;;4.30;99.90;;;;;;5117144;28;20298;-83
2023/01/27 00:15:48;;;;;;;46.50;26.98;;;4.20;99.90;;;;;;5117234;28;20425;-84
2023/01/27 00:18:13;;;;;;;47.37;27.10;;;4.20;99.90;;;;;;5098686;28;20199;-84
2023/01/27 00:26:12;;;;;;;50.42;28.80;;;4.30;99.90;;;;;;5117167;28;20233;-88
2023/01/27 00:28:39;;;;;;;49.47;25.75;;;4.30;99.90;;;;;;5116766;28;20204;-89
2023/01/27 00:33:54;;;;;;;47.60;25.10;;;4.30;99.90;;;;;;5117034;28;20254;-89
2023/01/27 00:36:21;;;;;;;54.15;26.58;;;4.30;99.90;;;;;;5116504;28;20168;-84
2023/01/27 00:38:47;;;;;;;50.45;28.13;;;4.30;99.90;;;;;;5098050;28;20246;-89
2023/01/27 00:41:19;;;;;;;52.30;27.92;;;4.30;99.90;;;;;;5098283;28;20179;-88
2023/01/27 00:43:50;;;;;;;58.60;29.58;;;4.30;99.90;;;;;;5103982;28;20323;-84
2023/01/27 00:46:17;;;;;;;54.00;28.58;;;4.40;99.90;;;;;;5116540;28;20160;-90
2023/01/27 00:48:43;;;;;;;52.92;28.27;;;4.40;99.90;;;;;;5116320;28;20608;-85
2023/01/27 00:51:09;;;;;;;55.20;29.02;;;4.40;99.90;;;;;;5097786;28;20222;-84
2023/01/27 00:53:35;;;;;;;60.40;29.05;;;4.40;99.90;;;;;;5097837;28;20699;-84
2023/01/27 00:56:01;;;;;;;52.03;26.20;;;4.40;99.90;;;;;;5097839;28;20180;-84
2023/01/27 00:58:28;;;;;;;55.63;28.47;;;4.40;99.90;;;;;;5116146;28;20425;-84
2023/01/27 01:00:55;;;;;;;49.22;29.73;;;4.40;99.90;;;;;;5097801;28;20275;-84
2023/01/27 01:03:21;;;;;;;57.75;28.38;;;4.50;99.90;;;;;;5097626;28;20207;-87
2023/01/27 01:05:48;;;;;;;53.03;28.50;;;4.40;99.90;;;;;;5097888;28;20176;-88
2023/01/27 01:08:14;;;;;;;51.75;26.92;;;4.40;99.90;;;;;;5097441;28;20605;-84
2023/01/27 01:10:39;;;;;;;55.80;28.53;;;4.40;99.90;;;;;;5097671;28;20353;-85
2023/01/27 01:13:06;;;;;;;59.13;29.17;;;4.40;99.90;;;;;;5097693;28;20234;-88
2023/01/27 01:15:36;;;;;;;54.13;28.52;;;4.40;99.90;;;;;;5115716;28;20164;-90
2023/01/27 01:18:03;;;;;;;51.05;29.58;;;4.40;99.90;;;;;;5116388;28;20720;-85
2023/01/27 01:20:29;;;;;;;47.50;27.67;;;4.40;99.90;;;;;;5123584;28;20176;-87
2023/01/27 01:22:55;;;;;;;52.97;27.37;;;4.40;99.90;;;;;;5106183;28;20207;-90
2023/01/27 01:25:21;;;;;;;46.75;24.17;;;4.40;99.90;;;;;;5108712;28;20951;-84
2023/01/27 01:27:47;;;;;;;50.00;26.00;;;4.40;99.90;;;;;;5117150;28;20191;-84
2023/01/27 01:30:13;;;;;;;43.97;26.17;;;4.40;99.90;;;;;;5096883;28;20528;-88
2023/01/27 01:32:39;;;;;;;44.00;23.93;;;4.40;99.90;;;;;;5097174;28;20199;-84
2023/01/27 01:35:05;;;;;;;49.13;25.93;;;4.30;99.90;;;;;;5097435;28;20183;-91
2023/01/27 01:37:31;;;;;;;48.28;25.75;;;4.40;99.90;;;;;;5097238;28;20192;-90
2023/01/27 01:39:56;;;;;;;43.10;27.37;;;4.40;99.90;;;;;;5097441;28;20194;-90
2023/01/27 01:42:22;;;;;;;43.70;25.13;;;4.30;99.90;;;;;;5097085;28;20198;-90
2023/01/27 01:45:10;;;;;;;42.00;25.40;;;4.30;99.90;;;;;;5096911;28;20270;-85
2023/01/27 01:47:37;;;;;;;49.75;25.95;;;4.30;99.90;;;;;;5097039;28;20556;-86
2023/01/27 01:50:03;;;;;;;41.17;23.88;;;4.30;99.90;;;;;;5097144;28;20211;-84
2023/01/27 01:52:29;;;;;;;49.50;24.70;;;4.30;99.90;;;;;;5114959;28;20183;-83
2023/01/27 01:54:56;;;;;;;44.50;23.30;;;4.30;99.90;;;;;;5096948;28;20183;-85
2023/01/27 01:57:29;;;;;;;43.67;24.90;;;4.20;99.90;;;;;;5096644;28;20557;-84
2023/01/27 02:00:05;;;;;;;52.38;25.85;;;4.20;99.90;;;;;;5097240;28;20666;-90
2023/01/27 02:02:32;;;;;;;45.33;25.35;;;4.20;99.90;;;;;;5115025;28;20184;-83
2023/01/27 02:05:09;;;;;;;40.03;25.00;;;4.20;99.90;;;;;;5115434;28;20207;-90
2023/01/27 02:07:42;;;;;;;43.65;24.00;;;4.10;99.90;;;;;;5104353;28;20695;-84
2023/01/27 02:10:08;;;;;;;44.15;24.52;;;4.10;99.90;;;;;;5096493;28;20246;-90
2023/01/27 02:12:34;;;;;;;40.80;22.08;;;4.10;99.90;;;;;;5096969;28;20188;-90
2023/01/27 02:15:00;;;;;;;43.10;23.63;;;4.10;99.90;;;;;;5115494;28;20176;-91
2023/01/27 02:17:27;;;;;;;38.60;22.70;;;4.00;99.90;;;;;;5096109;28;20659;-90
2023/01/27 02:20:20;;;;;;;43.22;23.15;;;4.00;99.90;;;;;;5096555;28;20194;-90
2023/01/27 02:23:01;;;;;;;39.55;23.15;;;4.00;99.90;;;;;;5096463;28;20202;-84
2023/01/27 02:25:33;;;;;;;37.85;22.80;;;4.00;99.90;;;;;;5114702;28;20163;-90
2023/01/27 02:27:59;;;;;;;43.25;23.25;;;4.00;99.90;;;;;;5096371;28;20617;-84
2023/01/27 02:30:25;;;;;;;37.33;22.40;;;3.90;99.90;;;;;;5096332;28;20582;-89
2023/01/27 02:32:51;;;;;;;38.07;22.07;;;3.90;99.90;;;;;;5114395;28;20188;-89
2023/01/27 02:35:23;;;;;;;40.20;22.70;;;3.90;99.90;;;;;;5096540;28;20172;-88
2023/01/27 02:37:50;;;;;;;28.80;19.17;;;3.90;99.90;;;;;;5096490;28;20315;-84
2023/01/27 02:40:17;;;;;;;37.15;21.20;;;3.90;99.90;;;;;;5114578;28;20167;-85
2023/01/27 02:42:43;;;;;;;32.50;19.00;;;3.90;99.90;;;;;;5096365;28;20672;-84
2023/01/27 02:45:09;;;;;;;28.57;17.73;;;3.90;99.90;;;;;;5096565;28;20182;-83
2023/01/27 02:47:35;;;;;;;33.45;19.73;;;3.90;99.90;;;;;;5114294;28;20673;-84
2023/01/27 02:50:01;;;;;;;35.33;20.53;;;3.80;99.90;;;;;;5096502;28;20221;-84
2023/01/27 02:52:26;;;;;;;35.60;17.43;;;3.90;99.90;;;;;;5114173;28;20451;-84
2023/01/27 02:54:52;;;;;;;32.43;18.43;;;3.90;99.90;;;;;;5096661;28;20438;-90
2023/01/27 02:57:17;;;;;;;35.43;20.00;;;3.90;99.90;;;;;;5114280;28;20681;-84
2023/01/27 02:59:43;;;;;;;34.00;19.93;;;3.90;99.90;;;;;;5114675;28;20180;-90
2023/01/27 03:02:13;;;;;;;33.50;19.13;;;3.90;99.90;;;;;;5096420;28;20530;-90
2023/01/27 03:04:39;;;;;;;27.00;16.70;;;3.90;99.90;;;;;;5096618;28;20196;-90
2023/01/27 03:07:05;;;;;;;35.93;18.30;;;3.80;99.90;;;;;;5100064;28;20190;-90
2023/01/27 03:09:31;;;;;;;28.90;19.13;;;3.80;99.90;;;;;;5095862;28;20765;-90
2023/01/27 03:20:10;;;;;;;31.05;18.13;;;3.90;99.90;;;;;;5114886;28;20182;-84
2023/01/27 03:22:35;;;;;;;32.28;19.58;;;3.90;99.90;;;;;;5114183;28;20195;-84
2023/01/27 03:25:01;;;;;;;30.43;19.20;;;4.00;99.90;;;;;;5114627;28;20587;-84
2023/01/27 03:27:27;;;;;;;36.23;20.70;;;4.00;99.90;;;;;;5096044;28;20195;-90
2023/01/27 03:29:55;;;;;;;36.90;20.80;;;4.10;99.90;;;;;;5098227;28;20183;-91
2023/01/27 03:32:25;;;;;;;32.75;19.35;;;4.00;99.90;;;;;;5117933;28;20192;-84
2023/01/27 03:34:51;;;;;;;31.75;19.02;;;4.00;99.90;;;;;;5118289;28;20184;-84
2023/01/27 03:48:17;;;;;;;28.92;18.13;;;4.00;99.90;;;;;;5123922;28;20210;-90
2023/01/27 03:50:43;;;;;;;30.13;18.20;;;3.90;99.90;;;;;;5120672;28;20196;-88
2023/01/27 03:53:09;;;;;;;31.97;17.93;;;3.90;99.90;;;;;;5119451;28;20212;-84
2023/01/27 03:55:37;;;;;;;30.05;17.52;;;3.90;99.90;;;;;;5099188;28;20502;-90
2023/01/27 03:58:18;;;;;;;30.83;16.90;;;4.00;99.90;;;;;;5099055;28;20568;-84
2023/01/27 04:00:51;;;;;;;28.58;16.85;;;3.90;99.90;;;;;;5117319;28;20226;-91
2023/01/27 04:08:47;;;;;;;29.35;16.27;;;4.00;99.90;;;;;;5117519;28;20772;-84
2023/01/27 04:14:00;;;;;;;25.58;15.75;;;4.10;99.90;;;;;;5117164;28;20288;-83
2023/01/27 04:16:27;;;;;;;24.65;16.45;;;4.10;99.90;;;;;;5098574;28;20676;-83
2023/01/27 04:18:54;;;;;;;30.27;16.08;;;4.10;99.90;;;;;;5117280;28;20650;-83
2023/01/27 04:21:20;;;;;;;25.33;16.45;;;4.10;99.90;;;;;;5098660;28;20225;-89
2023/01/27 04:23:45;;;;;;;25.33;16.40;;;4.10;99.90;;;;;;5098712;28;20203;-82
2023/01/27 04:26:11;;;;;;;28.13;17.20;;;4.10;99.90;;;;;;5116764;28;20441;-88
2023/01/27 04:28:37;;;;;;;26.47;16.57;;;4.10;99.90;;;;;;5098324;28;20434;-89
2023/01/27 04:31:02;;;;;;;29.70;16.80;;;4.10;99.90;;;;;;5116392;28;20212;-83
2023/01/27 04:33:28;;;;;;;25.17;16.40;;;4.10;99.90;;;;;;5116650;28;20226;-84
2023/01/27 04:35:54;;;;;;;27.97;16.90;;;4.10;99.90;;;;;;5116513;28;20178;-84
2023/01/27 04:38:21;;;;;;;26.13;16.45;;;4.00;99.90;;;;;;5116434;28;20807;-84
2023/01/27 04:40:46;;;;;;;28.10;16.70;;;4.00;99.90;;;;;;5097879;28;20198;-88
2023/01/27 04:43:12;;;;;;;29.30;17.40;;;3.90;99.90;;;;;;5097924;28;20203;-84
2023/01/27 04:45:38;;;;;;;26.83;17.50;;;3.90;99.90;;;;;;5098035;28;20458;-84
2023/01/27 04:48:05;;;;;;;28.87;16.80;;;3.90;99.90;;;;;;5121776;28;20417;-88
2023/01/27 04:50:31;;;;;;;28.40;16.05;;;3.90;99.90;;;;;;5117416;28;20203;-88
2023/01/27 04:52:57;;;;;;;27.40;17.02;;;3.90;99.90;;;;;;5116009;28;20191;-84
2023/01/27 04:55:23;;;;;;;32.10;18.43;;;4.00;99.90;;;;;;5116076;28;20179;-88
2023/01/27 04:57:48;;;;;;;23.33;14.37;;;4.20;99.90;;;;;;5097676;28;20194;-84
2023/01/27 05:00:14;;;;;;;29.73;14.90;;;4.40;99.90;;;;;;5098271;28;20217;-88
2023/01/27 05:02:40;;;;;;;60.78;31.48;;;4.60;99.90;;;;;;5116156;28;20268;-90
2023/01/27 05:05:06;;;;;;;29.00;17.13;;;4.90;99.90;;;;;;5116717;28;20180;-87
2023/01/27 05:07:32;;;;;;;28.17;17.00;;;5.10;99.90;;;;;;5116158;28;20192;-90
2023/01/27 05:09:58;;;;;;;29.00;16.87;;;5.20;99.90;;;;;;5098058;28;20231;-90
2023/01/27 05:12:23;;;;;;;26.00;16.23;;;5.30;99.90;;;;;;5116100;28;20708;-90
2023/01/27 05:14:49;;;;;;;27.63;16.73;;;5.40;99.90;;;;;;5098139;28;20394;-90
2023/01/27 05:17:15;;;;;;;28.00;16.77;;;5.40;99.90;;;;;;5116252;28;20200;-84
2023/01/27 05:19:40;;;;;;;31.30;17.40;;;5.40;99.90;;;;;;5097959;28;20206;-90
2023/01/27 05:22:07;;;;;;;31.13;16.97;;;5.40;99.90;;;;;;5114557;28;20450;-90
2023/01/27 05:24:33;;;;;;;24.38;15.38;;;5.50;99.90;;;;;;5120113;28;20179;-89
2023/01/27 05:26:58;;;;;;;27.03;16.20;;;5.60;99.90;;;;;;5122205;28;20204;-85
2023/01/27 05:29:24;;;;;;;29.47;17.17;;;5.60;99.90;;;;;;5100898;28;20245;-84
2023/01/27 05:31:50;;;;;;;29.73;17.53;;;5.60;99.90;;;;;;5102956;28;20268;-84
2023/01/27 05:34:15;;;;;;;25.67;14.97;;;5.60;99.90;;;;;;5097014;28;20204;-91
2023/01/27 05:36:41;;;;;;;28.90;17.50;;;5.70;99.90;;;;;;5095144;28;20582;-83
2023/01/27 05:39:09;;;;;;;28.53;17.30;;;5.80;99.90;;;;;;5095165;28;20204;-90
2023/01/27 05:41:36;;;;;;;27.77;17.08;;;5.90;99.90;;;;;;5113805;28;20271;-84
2023/01/27 05:44:02;;;;;;;26.80;17.70;;;5.90;99.90;;;;;;5114027;28;20256;-90
2023/01/27 05:46:29;;;;;;;27.45;17.08;;;5.90;99.90;;;;;;5094981;28;20172;-84
2023/01/27 05:49:01;;;;;;;28.27;17.15;;;5.90;99.90;;;;;;5113964;28;20192;-84
2023/01/27 05:51:30;;;;;;;28.02;17.75;;;5.90;99.90;;;;;;5096650;28;20238;-91
2023/01/27 05:53:56;;;;;;;32.67;19.23;;;5.90;99.90;;;;;;5096750;28;20203;-91
2023/01/27 05:56:22;;;;;;;35.80;18.97;;;6.00;99.90;;;;;;5115293;28;20180;-83
2023/01/27 05:58:48;;;;;;;28.17;18.80;;;5.60;99.90;;;;;;5096553;28;20211;-83
2023/01/27 06:01:19;;;;;;;36.45;19.67;;;5.20;99.90;;;;;;5096419;28;20175;-84
2023/01/27 06:03:45;;;;;;;30.98;19.10;;;4.90;99.90;;;;;;5096928;28;20204;-91
2023/01/27 06:06:12;;;;;;;29.40;19.63;;;4.60;99.90;;;;;;5097047;28;20199;-90
2023/01/27 06:08:39;;;;;;;32.53;18.70;;;4.50;99.90;;;;;;5113893;28;20299;-84
2023/01/27 06:11:05;;;;;;;38.30;18.77;;;4.40;99.90;;;;;;5096772;28;20208;-84
2023/01/27 06:13:34;;;;;;;33.97;21.75;;;4.80;99.90;;;;;;5114731;28;20224;-85
2023/01/27 06:16:01;;;;;;;34.97;20.58;;;4.80;99.90;;;;;;5116794;28;20247;-83
2023/01/27 06:18:28;;;;;;;36.97;21.23;;;4.60;99.90;;;;;;5105278;28;20212;-91
2023/01/27 06:20:57;;;;;;;32.78;19.65;;;4.40;99.90;;;;;;5115883;28;20182;-90
2023/01/27 06:23:23;;;;;;;34.85;19.95;;;4.30;99.90;;;;;;5095217;28;20286;-91
2023/01/27 06:25:49;;;;;;;31.13;17.90;;;4.20;99.90;;;;;;5114773;28;20275;-87
2023/01/27 06:28:16;;;;;;;28.87;17.70;;;4.30;99.90;;;;;;5114404;28;20428;-84
2023/01/27 06:30:41;;;;;;;30.65;18.73;;;4.30;99.90;;;;;;5096275;28;20691;-91
2023/01/27 06:33:08;;;;;;;33.07;19.30;;;4.20;99.90;;;;;;5096271;28;20199;-91
2023/01/27 06:35:35;;;;;;;30.15;18.73;;;4.20;99.90;;;;;;5095356;28;20510;-90
2023/01/27 06:38:02;;;;;;;29.45;19.65;;;4.20;99.90;;;;;;5113070;28;20252;-91
2023/01/27 06:40:29;;;;;;;33.10;20.23;;;4.20;99.90;;;;;;5113297;28;20168;-91
2023/01/27 06:42:56;;;;;;;38.95;21.00;;;4.20;99.90;;;;;;5093737;28;20195;-86
2023/01/27 06:45:22;;;;;;;37.30;19.90;;;4.20;99.90;;;;;;5093029;28;20879;-83
2023/01/27 06:47:55;;;;;;;33.72;19.70;;;4.10;99.90;;;;;;5112502;28;20191;-91
2023/01/27 06:50:22;;;;;;;58.25;33.28;;;4.10;99.90;;;;;;5093866;28;20199;-92
2023/01/27 06:52:48;;;;;;;45.65;24.98;;;4.00;99.90;;;;;;5109738;28;20195;-92
2023/01/27 06:55:14;;;;;;;31.83;20.40;;;4.10;99.90;;;;;;5109892;28;20250;-85
2023/01/27 06:57:40;;;;;;;37.53;21.67;;;4.00;99.90;;;;;;5112180;28;20689;-83
2023/01/27 07:00:06;;;;;;;37.70;21.47;;;4.00;99.90;;;;;;5092553;28;20426;-83
2023/01/27 07:02:32;;;;;;;34.05;21.20;;;4.00;99.90;;;;;;5108127;28;20191;-84
2023/01/27 07:04:58;;;;;;;38.17;22.30;;;4.00;99.90;;;;;;5116326;28;20217;-82
2023/01/27 07:07:23;;;;;;;35.73;19.10;;;4.00;99.90;;;;;;5104411;28;20192;-84
2023/01/27 07:09:49;;;;;;;31.53;21.17;;;4.00;99.90;;;;;;5099131;28;20220;-84
2023/01/27 07:12:15;;;;;;;33.70;21.10;;;4.00;99.90;;;;;;5104967;28;20204;-91
2023/01/27 07:14:40;;;;;;;35.57;21.27;;;4.00;99.90;;;;;;5093674;28;20660;-84
2023/01/27 07:17:06;;;;;;;32.43;19.93;;;4.00;99.90;;;;;;5099059;28;20248;-83
2023/01/27 07:19:32;;;;;;;35.92;21.52;;;3.90;99.90;;;;;;5097872;28;20175;-85
2023/01/27 07:21:58;;;;;;;31.03;19.67;;;3.90;99.90;;;;;;5081231;28;20172;-84
2023/01/27 07:24:23;;;;;;;32.63;18.90;;;4.00;99.90;;;;;;5097886;28;20203;-83
2023/01/27 07:26:49;;;;;;;35.93;21.60;;;3.90;99.90;;;;;;5108412;28;20179;-83
2023/01/27 07:29:15;;;;;;;32.87;18.50;;;3.90;99.90;;;;;;5103513;28;20199;-87
2023/01/27 07:31:41;;;;;;;34.63;19.17;;;3.90;99.90;;;;;;5110731;28;20225;-89
2023/01/27 07:34:07;;;;;;;33.30;19.38;;;4.00;99.90;;;;;;5101883;28;20311;-84
2023/01/27 07:36:32;;;;;;;38.63;20.60;;;4.10;99.90;;;;;;5117488;28;20280;-84
2023/01/27 07:38:58;;;;;;;31.40;19.47;;;4.00;99.90;;;;;;5098020;28;20458;-84
2023/01/27 07:41:25;;;;;;;30.23;19.40;;;4.00;99.90;;;;;;5098348;28;20172;-91
2023/01/27 07:43:50;;;;;;;34.47;20.25;;;4.00;99.90;;;;;;5099408;28;20235;-90
2023/01/27 07:46:16;;;;;;;29.13;19.00;;;4.00;99.90;;;;;;5099147;28;20176;-88
2023/01/27 07:48:42;;;;;;;30.47;19.07;;;3.90;99.90;;;;;;5115178;28;20435;-83
2023/01/27 07:51:12;;;;;;;33.43;18.70;;;3.90;99.90;;;;;;5112025;28;20337;-84
2023/01/27 07:53:39;;;;;;;29.83;18.05;;;4.00;99.90;;;;;;5111955;28;20206;-85
2023/01/27 07:56:10;;;;;;;30.85;17.92;;;4.00;99.90;;;;;;5112177;28;20596;-83
2023/01/27 07:58:41;;;;;;;29.38;18.13;;;4.10;99.90;;;;;;5091714;28;20246;-82
2023/01/27 08:01:09;;;;;;;29.90;18.60;;;4.10;99.90;;;;;;5091860;28;20177;-83
2023/01/27 08:03:35;;;;;;;29.52;18.05;;;4.20;99.90;;;;;;5104180;28;20672;-83
2023/01/27 08:06:09;;;;;;;27.98;18.50;;;4.20;99.90;;;;;;5108704;28;20199;-85
2023/01/27 08:08:35;;;;;;;32.53;18.98;;;4.20;99.90;;;;;;5086959;28;20263;-83
2023/01/27 08:11:07;;;;;;;27.50;17.70;;;4.20;99.90;;;;;;5111666;27;20207;-84
2023/01/27 08:13:34;;;;;;;26.15;16.80;;;4.30;99.90;;;;;;5117020;28;20211;-88
2023/01/27 08:16:01;;;;;;;30.17;18.10;;;4.30;99.90;;;;;;5095531;28;20590;-89
2023/01/27 08:18:28;;;;;;;28.90;17.58;;;4.30;99.90;;;;;;5115668;28;20567;-88
2023/01/27 08:20:58;;;;;;;29.02;16.63;;;4.40;99.90;;;;;;5096057;28;20176;-89
2023/01/27 08:23:24;;;;;;;32.00;19.00;;;4.40;99.90;;;;;;5094590;28;20296;-89
2023/01/27 08:25:51;;;;;;;30.33;19.50;;;4.40;99.90;;;;;;5093866;28;20204;-83
2023/01/27 08:28:18;;;;;;;26.17;17.17;;;4.40;99.90;;;;;;5094479;28;20462;-84
2023/01/27 08:30:43;;;;;;;26.92;17.63;;;4.50;99.90;;;;;;5113778;28;20715;-87
2023/01/27 08:33:09;;;;;;;30.67;18.20;;;4.50;99.90;;;;;;5084191;28;20212;-84
2023/01/27 08:35:37;;;;;;;26.83;15.87;;;4.50;99.90;;;;;;5093861;28;20543;-85
2023/01/27 08:38:03;;;;;;;27.33;17.05;;;4.50;99.90;;;;;;5092060;28;20459;-81
2023/01/27 08:40:30;;;;;;;28.98;19.25;;;4.60;99.90;;;;;;5100501;28;20541;-80
2023/01/27 08:42:55;;;;;;;24.27;16.67;;;4.60;99.90;;;;;;5114847;28;20199;-81
2023/01/27 08:45:21;;;;;;;28.80;16.93;;;4.60;99.90;;;;;;5117414;28;20179;-87
2023/01/27 08:47:47;;;;;;;27.63;17.40;;;4.70;99.90;;;;;;5102988;28;20298;-88
2023/01/27 08:50:13;;;;;;;30.60;18.17;;;4.70;99.90;;;;;;5081019;28;20471;-84
2023/01/27 08:52:39;;;;;;;25.23;16.57;;;4.70;99.90;;;;;;5093888;28;20268;-87
2023/01/27 08:55:05;;;;;;;31.85;17.63;;;4.70;99.90;;;;;;5099639;28;20187;-87
2023/01/27 08:57:31;;;;;;;28.00;16.83;;;4.60;99.90;;;;;;5093952;28;20204;-82
2023/01/27 08:59:58;;;;;;;24.40;15.85;;;4.70;99.90;;;;;;5091701;28;20218;-83
2023/01/27 09:02:44;;;;;;;24.10;17.83;;;4.70;99.90;;;;;;5106614;28;20188;-83
2023/01/27 09:05:10;;;;;;;20.83;13.75;;;4.70;99.90;;;;;;5100165;28;20184;-83
2023/01/27 09:07:36;;;;;;;28.77;16.80;;;4.80;99.90;;;;;;5095602;28;20703;-88
2023/01/27 09:10:03;;;;;;;27.50;15.00;;;4.70;99.90;;;;;;5111798;28;20467;-83
2023/01/27 09:12:29;;;;;;;27.58;15.93;;;4.70;99.90;;;;;;5112273;28;20956;-82
2023/01/27 09:14:57;;;;;;;22.15;14.77;;;4.80;99.90;;;;;;5096273;28;20192;-82
2023/01/27 09:17:23;;;;;;;24.48;15.63;;;4.80;99.90;;;;;;5090370;28;20220;-83
2023/01/27 09:19:49;;;;;;;25.27;16.35;;;4.80;99.90;;;;;;5099302;28;20633;-87
2023/01/27 09:22:14;;;;;;;22.30;15.00;;;4.90;99.90;;;;;;5095764;28;20229;-82
2023/01/27 09:24:40;;;;;;;22.43;14.03;;;4.90;99.90;;;;;;5102548;28;20569;-82
2023/01/27 09:27:06;;;;;;;25.27;15.10;;;5.00;99.90;;;;;;5079854;28;20607;-82
2023/01/27 09:29:32;;;;;;;18.50;12.30;;;5.00;99.90;;;;;;5084151;28;20581;-85
2023/01/27 09:31:57;;;;;;;23.00;12.10;;;5.00;99.90;;;;;;5108582;28;20204;-87
2023/01/27 09:34:23;;;;;;;20.03;14.23;;;5.00;99.90;;;;;;5081830;28;20656;-82
2023/01/27 09:36:55;;;;;;;28.73;15.27;;;5.00;99.90;;;;;;5087744;28;20221;-87
2023/01/27 09:39:21;;;;;;;22.92;15.20;;;5.00;99.90;;;;;;5098050;28;20241;-81
2023/01/27 09:41:58;;;;;;;22.42;15.27;;;5.00;99.90;;;;;;5086179;28;20217;-82
2023/01/27 09:44:30;;;;;;;29.70;14.07;;;5.00;99.90;;;;;;5101743;28;20194;-81
2023/01/27 09:47:31;;;;;;;24.23;14.05;;;5.10;99.90;;;;;;5097858;28;20391;-88
2023/01/27 09:50:15;;;;;;;25.30;16.42;;;5.20;99.90;;;;;;5089741;28;20186;-86
2023/01/27 09:52:53;;;;;;;22.00;15.10;;;5.20;99.90;;;;;;5107601;28;20312;-88
2023/01/27 09:55:43;;;;;;;20.80;11.95;;;5.20;99.90;;;;;;5079811;28;20192;-85
2023/01/27 09:58:19;;;;;;;22.92;14.80;;;5.30;99.90;;;;;;5091141;28;20215;-88
2023/01/27 10:00:52;;;;;;;22.35;14.57;;;5.30;99.90;;;;;;5092726;28;20171;-82
2023/01/27 10:03:26;;;;;;;27.08;15.00;;;5.30;99.90;;;;;;5091573;28;20207;-87
2023/01/27 10:06:20;;;;;;;23.60;14.90;;;5.30;99.90;;;;;;5073066;28;20206;-86
2023/01/27 10:09:08;;;;;;;23.75;15.23;;;5.30;99.90;;;;;;5084894;28;20898;-82
2023/01/27 10:12:10;;;;;;;20.88;14.32;;;5.40;99.90;;;;;;5108857;28;20218;-86
2023/01/27 10:15:04;;;;;;;23.42;13.85;;;5.40;99.90;;;;;;5103502;28;20190;-87
2023/01/27 10:17:48;;;;;;;21.92;14.27;;;5.40;99.90;;;;;;5101183;28;20196;-81
2023/01/27 10:20:20;;;;;;;21.10;14.43;;;5.30;99.90;;;;;;5108017;28;20187;-82
2023/01/27 10:22:51;;;;;;;19.52;12.10;;;5.30;99.90;;;;;;5094939;28;20204;-81
2023/01/27 10:25:23;;;;;;;23.65;13.00;;;5.30;99.90;;;;;;5087284;28;20211;-88
2023/01/27 10:27:56;;;;;;;28.67;13.82;;;5.30;99.90;;;;;;5091974;28;20209;-84
2023/01/27 10:30:36;;;;;;;23.38;14.05;;;5.20;99.90;;;;;;5091627;28;20207;-86
2023/01/27 10:33:21;;;;;;;23.45;15.45;;;5.20;99.90;;;;;;5084031;28;20561;-87
2023/01/27 10:35:57;;;;;;;20.42;12.63;;;5.20;99.90;;;;;;5085727;28;20777;-86
2023/01/27 10:38:54;;;;;;;21.60;12.95;;;5.20;99.90;;;;;;5081415;28;20206;-86
2023/01/27 10:41:28;;;;;;;19.35;13.23;;;5.20;99.90;;;;;;5069741;28;20241;-82
2023/01/27 10:44:19;;;;;;;23.30;14.05;;;5.20;99.90;;;;;;5110383;28;20198;-82
2023/01/27 10:47:09;;;;;;;19.85;13.30;;;5.30;99.90;;;;;;5102517;28;20672;-83
2023/01/27 10:49:41;;;;;;;21.25;13.55;;;5.20;99.90;;;;;;5103760;28;20222;-86
2023/01/27 10:52:14;;;;;;;23.88;14.80;;;5.20;99.90;;;;;;5103627;28;20223;-83
2023/01/27 10:55:06;;;;;;;24.55;15.40;;;5.20;99.90;;;;;;5088572;28;20179;-87
2023/01/27 10:57:59;;;;;;;22.40;14.73;;;5.20;99.90;;;;;;5056426;28;20229;-82
2023/01/27 11:00:44;;;;;;;21.60;14.93;;;5.20;99.90;;;;;;5087422;28;20282;-87
2023/01/27 11:03:25;;;;;;;24.88;14.88;;;5.20;99.90;;;;;;5106443;28;20569;-81
2023/01/27 11:06:08;;;;;;;21.15;14.60;;;5.10;99.90;;;;;;5091008;28;20530;-81
2023/01/27 11:08:37;;;;;;;26.63;16.33;;;5.10;99.90;;;;;;5087429;28;20227;-80
2023/01/27 11:14:08;;;;;;;22.88;15.25;;;5.20;99.90;;;;;;5109675;28;20253;-87
2023/01/27 11:16:38;;;;;;;27.85;15.50;;;5.10;99.90;;;;;;5102838;28;20187;-81
2023/01/27 11:19:41;;;;;;;25.77;15.05;;;5.10;99.90;;;;;;5090457;28;20681;-81
2023/01/27 11:22:35;;;;;;;21.45;14.43;;;5.10;99.90;;;;;;5088052;28;20212;-87
2023/01/27 11:25:16;;;;;;;21.85;14.38;;;5.10;99.90;;;;;;5086428;28;20321;-81
2023/01/27 11:27:48;;;;;;;21.15;14.55;;;5.10;99.90;;;;;;5083704;28;20536;-87
2023/01/27 11:30:41;;;;;;;24.67;15.50;;;5.10;99.90;;;;;;5084708;28;20212;-87
2023/01/27 11:33:45;;;;;;;20.40;14.55;;;5.10;99.90;;;;;;5084244;28;20223;-87
2023/01/27 11:36:11;;;;;;;19.92;13.52;;;5.10;99.90;;;;;;5056102;28;20240;-86
2023/01/27 11:38:36;;;;;;;21.37;14.33;;;5.10;99.90;;;;;;5091501;28;20222;-82
2023/01/27 11:41:02;;;;;;;21.10;12.87;;;5.10;99.90;;;;;;5087102;28;20183;-81
2023/01/27 11:43:28;;;;;;;21.67;13.33;;;5.10;99.90;;;;;;5085904;28;20294;-80
2023/01/27 11:46:00;;;;;;;24.08;14.85;;;5.10;99.90;;;;;;5085595;28;20521;-86
2023/01/27 11:48:41;;;;;;;23.23;14.35;;;5.10;99.90;;;;;;5083362;28;20222;-81
2023/01/27 11:51:36;;;;;;;20.92;13.10;;;5.10;99.90;;;;;;5088337;28;20248;-88
2023/01/27 11:54:05;;;;;;;21.23;12.10;;;5.20;99.90;;;;;;5102885;28;20246;-86
2023/01/27 11:56:33;;;;;;;20.55;14.30;;;5.20;99.90;;;;;;5086602;28;20188;-86
2023/01/27 11:59:05;;;;;;;19.38;14.00;;;5.20;99.90;;;;;;5105097;28;20738;-81
2023/01/27 12:01:52;;;;;;;22.05;15.02;;;5.20;99.90;;;;;;5102378;28;20176;-81
2023/01/27 12:04:37;;;;;;;21.02;13.55;;;5.20;99.90;;;;;;5082700;28;20176;-87
2023/01/27 12:07:34;;;;;;;21.25;13.80;;;5.30;99.90;;;;;;5100664;28;20171;-87
2023/01/27 12:10:00;;;;;;;21.73;14.40;;;5.30;99.90;;;;;;5106261;28;20263;-81
2023/01/27 12:12:26;;;;;;;25.90;14.77;;;5.30;99.90;;;;;;5082511;28;20205;-86
2023/01/27 12:15:01;;;;;;;19.77;12.52;;;5.30;99.90;;;;;;5084573;28;20183;-83
2023/01/27 12:17:39;;;;;;;19.33;12.18;;;5.30;99.90;;;;;;5101500;28;20728;-88
2023/01/27 12:20:21;;;;;;;20.95;13.00;;;5.40;99.90;;;;;;5104423;28;20215;-81
2023/01/27 12:22:51;;;;;;;21.92;13.27;;;5.40;99.90;;;;;;5101818;28;20341;-86
2023/01/27 12:25:32;;;;;;;20.02;12.95;;;5.30;99.90;;;;;;5098474;28;20184;-80
2023/01/27 12:28:01;;;;;;;22.27;13.98;;;5.30;99.90;;;;;;5097654;28;20199;-86
2023/01/27 12:30:31;;;;;;;22.77;13.13;;;5.30;99.90;;;;;;5092245;28;20330;-85
2023/01/27 12:32:58;;;;;;;21.80;13.40;;;5.30;99.90;;;;;;5088781;28;20306;-81
2023/01/27 12:35:29;;;;;;;22.15;13.82;;;5.30;99.90;;;;;;5102552;28;20168;-79
2023/01/27 12:38:05;;;;;;;20.63;13.07;;;5.30;99.90;;;;;;5076754;28;20196;-87
2023/01/27 12:40:32;;;;;;;22.58;13.80;;;5.30;99.90;;;;;;5092535;28;20183;-85
2023/01/27 12:43:00;;;;;;;22.70;14.30;;;5.30;99.90;;;;;;5109246;28;20199;-88
2023/01/27 12:45:29;;;;;;;17.67;12.88;;;5.30;99.90;;;;;;5085270;28;20906;-82
2023/01/27 12:47:59;;;;;;;24.10;15.50;;;5.30;99.90;;;;;;5086111;28;20204;-78
2023/01/27 12:50:28;;;;;;;26.08;16.65;;;5.30;99.90;;;;;;5087071;28;20234;-81
2023/01/27 12:53:06;;;;;;;31.45;19.05;;;5.30;99.90;;;;;;5103435;28;20638;-86
2023/01/27 12:55:34;;;;;;;26.55;15.70;;;5.20;99.90;;;;;;5105380;28;20179;-83
2023/01/27 12:58:02;;;;;;;27.20;15.30;;;5.20;99.90;;;;;;5100477;28;20196;-81
2023/01/27 13:00:28;;;;;;;27.83;17.63;;;5.20;99.90;;;;;;5088845;28;20648;-85
2023/01/27 13:03:09;;;;;;;28.65;17.48;;;5.20;99.90;;;;;;5102544;28;20199;-85
2023/01/27 13:05:37;;;;;;;29.33;18.60;;;5.20;99.90;;;;;;5101440;28;20217;-81
2023/01/27 13:08:04;;;;;;;26.63;17.55;;;5.20;99.90;;;;;;5102516;28;20264;-80
2023/01/27 13:10:30;;;;;;;23.80;16.10;;;5.20;99.90;;;;;;5086683;28;20313;-84
2023/01/27 13:12:58;;;;;;;41.50;24.60;;;5.10;99.90;;;;;;5097222;28;20275;-83
2023/01/27 13:15:27;;;;;;;34.55;18.77;;;5.20;99.90;;;;;;5082781;28;20490;-83
2023/01/27 13:17:54;;;;;;;27.55;15.82;;;5.30;99.90;;;;;;5084058;28;20679;-84
2023/01/27 13:20:23;;;;;;;22.92;14.27;;;5.30;99.90;;;;;;5083816;28;20187;-82
2023/01/27 13:23:25;;;;;;;23.00;14.57;;;5.30;99.90;;;;;;5102636;28;20187;-84
2023/01/27 13:25:53;;;;;;;20.80;13.50;;;5.40;99.90;;;;;;5102590;28;20201;-85
2023/01/27 13:28:31;;;;;;;22.63;13.52;;;5.50;99.90;;;;;;5087966;28;20211;-84
2023/01/27 13:31:09;;;;;;;19.98;12.82;;;5.50;99.90;;;;;;5083226;28;20231;-81